Time;durP1;ratioP1;P1;durP2;ratioP2;P2;SDS_P1;SDS_P2;PMS_P1;PMS_P2;Temp;Humidity;BMP_temperature;BMP_pressure;BME280_temperature;BME280_humidity;BME280_pressure;Samples;Min_cycle;Max_cycle;Signal;HPM_P1;HPM_P2
2023/05/21 00:02:16;;;;;;;97.28;92.85;;;14.20;99.90;;;;;;4989588;28;20061;-73
2023/05/21 00:04:43;;;;;;;100.10;95.57;;;14.10;99.90;;;;;;4989743;28;20050;-73
2023/05/21 00:07:09;;;;;;;104.72;100.25;;;14.10;99.90;;;;;;4989356;28;20038;-73
2023/05/21 00:09:37;;;;;;;102.22;97.80;;;14.10;99.90;;;;;;4989771;28;20105;-73
2023/05/21 00:12:04;;;;;;;103.85;99.28;;;14.00;99.90;;;;;;4988533;28;20511;-73
2023/05/21 00:14:29;;;;;;;100.05;95.32;;;14.00;99.90;;;;;;4989750;28;20038;-73
2023/05/21 00:16:55;;;;;;;101.30;96.85;;;14.00;99.90;;;;;;4973653;28;20050;-73
2023/05/21 00:19:21;;;;;;;103.07;98.47;;;14.00;99.90;;;;;;4989245;28;20038;-72
2023/05/21 00:21:46;;;;;;;104.43;99.93;;;14.00;99.90;;;;;;4972067;28;20054;-73
2023/05/21 00:24:12;;;;;;;111.57;106.80;;;14.00;99.90;;;;;;4990037;28;20042;-73
2023/05/21 00:26:37;;;;;;;103.00;98.50;;;14.00;99.90;;;;;;4989389;28;20474;-73
2023/05/21 00:29:03;;;;;;;108.43;103.60;;;14.00;99.90;;;;;;4990027;28;20042;-73
2023/05/21 00:31:29;;;;;;;114.20;109.18;;;14.00;99.90;;;;;;4988072;28;20511;-73
2023/05/21 00:33:55;;;;;;;115.30;110.32;;;14.00;99.90;;;;;;4988992;28;20042;-73
2023/05/21 00:36:22;;;;;;;116.10;110.95;;;13.90;99.90;;;;;;4986771;28;20042;-72
2023/05/21 00:38:49;;;;;;;117.47;112.15;;;13.90;99.90;;;;;;4981210;28;20046;-73
2023/05/21 00:41:15;;;;;;;108.10;103.35;;;13.90;99.90;;;;;;4990976;28;20050;-73
2023/05/21 00:43:43;;;;;;;115.55;110.32;;;14.00;99.90;;;;;;4974022;28;20468;-73
2023/05/21 00:46:15;;;;;;;129.02;123.50;;;14.00;99.90;;;;;;4989451;28;20524;-73
2023/05/21 00:48:42;;;;;;;119.43;114.03;;;13.90;99.90;;;;;;4988819;28;20482;-73
2023/05/21 00:51:08;;;;;;;118.22;113.03;;;14.00;99.90;;;;;;4971571;28;20050;-73
2023/05/21 00:53:34;;;;;;;142.20;136.05;;;13.90;99.90;;;;;;4988711;28;20093;-73
2023/05/21 00:56:01;;;;;;;170.18;162.85;;;14.00;99.90;;;;;;4988763;28;20050;-73
2023/05/21 00:58:28;;;;;;;185.93;178.20;;;13.90;99.90;;;;;;4988252;28;20427;-73
2023/05/21 01:00:56;;;;;;;209.35;200.68;;;13.90;99.90;;;;;;4988296;28;20129;-73
2023/05/21 01:03:22;;;;;;;192.30;184.20;;;13.90;99.90;;;;;;4988492;28;20054;-73
2023/05/21 01:05:52;;;;;;;203.75;195.25;;;13.90;99.90;;;;;;4988586;28;20045;-73
2023/05/21 01:08:20;;;;;;;196.95;188.60;;;13.80;99.90;;;;;;4971715;28;20506;-73
2023/05/21 01:10:47;;;;;;;181.32;173.82;;;13.80;99.90;;;;;;4972252;28;20050;-73
2023/05/21 01:13:15;;;;;;;217.98;208.80;;;13.80;99.90;;;;;;4988570;28;20069;-73
2023/05/21 01:15:43;;;;;;;208.35;199.52;;;13.80;99.90;;;;;;4972316;28;20074;-73
2023/05/21 01:18:08;;;;;;;216.15;206.98;;;13.70;99.90;;;;;;4987737;28;20042;-73
2023/05/21 01:20:35;;;;;;;226.25;216.57;;;13.70;99.90;;;;;;4988581;28;20085;-73
2023/05/21 01:23:01;;;;;;;194.63;186.48;;;13.70;99.90;;;;;;4987284;28;20480;-73
2023/05/21 01:25:27;;;;;;;176.43;168.85;;;13.70;99.90;;;;;;4972515;28;20070;-74
2023/05/21 01:27:52;;;;;;;198.88;190.52;;;13.70;99.90;;;;;;4988972;28;20073;-73
2023/05/21 01:30:20;;;;;;;216.88;207.65;;;13.70;99.90;;;;;;4987332;28;20035;-73
2023/05/21 01:32:51;;;;;;;234.07;224.07;;;13.70;99.90;;;;;;4988220;28;20050;-73
2023/05/21 01:35:28;;;;;;;244.65;234.38;;;13.70;99.90;;;;;;4986918;28;20050;-73
2023/05/21 01:38:11;;;;;;;248.60;238.15;;;13.60;99.90;;;;;;4999439;28;20046;-73
2023/05/21 01:40:53;;;;;;;265.95;254.52;;;13.60;99.90;;;;;;4988250;28;20046;-72
2023/05/21 01:43:21;;;;;;;262.92;251.73;;;13.60;99.90;;;;;;4988281;28;20057;-72
2023/05/21 01:45:50;;;;;;;276.60;264.73;;;13.60;99.90;;;;;;4988053;28;20088;-73
2023/05/21 01:48:17;;;;;;;280.75;268.92;;;13.60;99.90;;;;;;4981048;28;20034;-73
2023/05/21 01:50:44;;;;;;;250.65;240.13;;;13.70;99.90;;;;;;4988272;28;20481;-73
2023/05/21 01:53:10;;;;;;;252.70;242.18;;;13.60;99.90;;;;;;4987875;28;20506;-73
2023/05/21 01:55:38;;;;;;;244.25;234.02;;;13.60;99.90;;;;;;4986979;28;20057;-73
2023/05/21 01:58:04;;;;;;;231.13;221.07;;;13.60;99.90;;;;;;4987676;28;20052;-73
2023/05/21 02:00:31;;;;;;;233.30;223.55;;;13.60;99.90;;;;;;4986813;28;20049;-73
2023/05/21 02:03:00;;;;;;;218.48;209.38;;;13.60;99.90;;;;;;4987264;28;20097;-73
2023/05/21 02:05:25;;;;;;;227.45;217.88;;;13.60;99.90;;;;;;4984563;28;20039;-73
2023/05/21 02:07:51;;;;;;;232.43;222.57;;;13.60;99.90;;;;;;4987616;28;20407;-72
2023/05/21 02:10:17;;;;;;;252.00;241.43;;;13.60;99.90;;;;;;4987062;28;20124;-73
2023/05/21 02:12:43;;;;;;;243.10;232.85;;;13.60;99.90;;;;;;4987523;28;20046;-73
2023/05/21 02:15:09;;;;;;;254.10;243.40;;;13.50;99.90;;;;;;4987327;28;20057;-73
2023/05/21 02:17:37;;;;;;;248.70;238.18;;;13.60;99.90;;;;;;4986539;28;20474;-73
2023/05/21 02:20:12;;;;;;;243.70;233.43;;;13.50;99.90;;;;;;4987598;28;20046;-73
2023/05/21 02:22:38;;;;;;;186.20;178.18;;;13.50;99.90;;;;;;4982238;28;20491;-73
2023/05/21 02:25:08;;;;;;;236.95;226.95;;;13.40;99.90;;;;;;4985064;28;20081;-73
2023/05/21 02:27:35;;;;;;;237.18;227.18;;;13.40;99.90;;;;;;4987488;28;20164;-73
2023/05/21 02:30:02;;;;;;;262.38;251.18;;;13.30;99.90;;;;;;4971140;28;20046;-73
2023/05/21 02:32:27;;;;;;;244.13;233.80;;;13.20;99.90;;;;;;4986393;28;20085;-73
2023/05/21 02:34:53;;;;;;;278.08;265.80;;;13.20;99.90;;;;;;4986015;28;20038;-73
2023/05/21 02:37:19;;;;;;;271.55;259.95;;;13.20;99.90;;;;;;4971854;28;20046;-73
2023/05/21 02:39:44;;;;;;;284.95;272.48;;;13.20;99.90;;;;;;4986430;28;20046;-73
2023/05/21 02:42:10;;;;;;;287.42;274.83;;;13.20;99.90;;;;;;4988543;28;20061;-72
2023/05/21 02:44:36;;;;;;;300.25;287.35;;;13.20;99.90;;;;;;4986717;28;20490;-73
2023/05/21 02:47:01;;;;;;;300.17;287.17;;;13.20;99.90;;;;;;4986048;28;20565;-73
2023/05/21 02:49:27;;;;;;;321.42;306.75;;;13.20;99.90;;;;;;4986993;28;20045;-73
2023/05/21 02:51:52;;;;;;;309.85;296.08;;;13.20;99.90;;;;;;4986320;28;20093;-73
2023/05/21 02:54:18;;;;;;;359.02;342.88;;;13.20;99.90;;;;;;4986840;28;20505;-73
2023/05/21 02:56:44;;;;;;;335.67;320.55;;;13.20;99.90;;;;;;4985479;28;20042;-73
2023/05/21 02:59:09;;;;;;;300.58;287.48;;;13.20;99.90;;;;;;4978536;28;20043;-73
2023/05/21 03:01:35;;;;;;;335.42;320.40;;;13.30;99.90;;;;;;4986336;28;20042;-73
2023/05/21 03:04:01;;;;;;;304.42;290.80;;;13.20;99.90;;;;;;4970558;28;20048;-73
2023/05/21 03:06:26;;;;;;;245.10;233.82;;;13.20;99.90;;;;;;4985628;28;20046;-73
2023/05/21 03:08:52;;;;;;;234.55;224.20;;;13.20;99.90;;;;;;4987041;28;20050;-73
2023/05/21 03:11:18;;;;;;;200.57;191.77;;;13.20;99.90;;;;;;4986898;28;20042;-73
2023/05/21 03:13:44;;;;;;;183.95;175.95;;;13.20;99.90;;;;;;4986825;28;20088;-73
2023/05/21 03:16:10;;;;;;;188.48;180.10;;;13.20;99.90;;;;;;4990869;28;20073;-73
2023/05/21 03:18:35;;;;;;;191.07;182.65;;;13.20;99.90;;;;;;4972595;28;20062;-73
2023/05/21 03:21:01;;;;;;;186.05;177.77;;;13.20;99.90;;;;;;4990242;28;20049;-73
2023/05/21 03:23:27;;;;;;;184.30;175.98;;;13.20;99.90;;;;;;4989230;28;20038;-73
2023/05/21 03:25:52;;;;;;;176.13;168.52;;;13.20;99.90;;;;;;4989459;28;20038;-73
2023/05/21 03:28:18;;;;;;;186.85;178.50;;;13.10;99.90;;;;;;4990657;28;20042;-73
2023/05/21 03:30:48;;;;;;;162.88;155.43;;;13.20;99.90;;;;;;4990895;28;20065;-73
2023/05/21 03:33:15;;;;;;;177.82;169.75;;;13.10;99.90;;;;;;4982805;28;20056;-73
2023/05/21 03:35:40;;;;;;;177.82;170.05;;;13.10;99.90;;;;;;4989639;28;20097;-72
2023/05/21 03:38:06;;;;;;;178.27;170.40;;;13.10;99.90;;;;;;4993365;28;20050;-73
2023/05/21 03:40:32;;;;;;;178.60;170.43;;;13.10;99.90;;;;;;4988801;28;20070;-73
2023/05/21 03:42:57;;;;;;;169.98;162.10;;;13.10;99.90;;;;;;4990260;28;20521;-73
2023/05/21 03:45:23;;;;;;;183.60;175.50;;;13.10;99.90;;;;;;4988843;28;20038;-73
2023/05/21 03:47:49;;;;;;;146.23;139.73;;;13.10;99.90;;;;;;4989388;28;20053;-72
2023/05/21 03:50:15;;;;;;;190.75;182.30;;;13.10;99.90;;;;;;4990205;28;20048;-73
2023/05/21 03:52:41;;;;;;;159.80;152.48;;;13.10;99.90;;;;;;4989812;28;20073;-73
2023/05/21 03:55:07;;;;;;;171.10;163.32;;;13.10;99.90;;;;;;4990098;28;20046;-73
2023/05/21 03:57:33;;;;;;;156.57;149.38;;;13.00;99.90;;;;;;4988987;28;20046;-73
2023/05/21 03:59:58;;;;;;;213.48;203.88;;;13.10;99.90;;;;;;4989867;28;20049;-73
2023/05/21 04:02:27;;;;;;;157.57;150.05;;;13.10;99.90;;;;;;4988495;28;20082;-73
2023/05/21 04:04:54;;;;;;;166.68;159.02;;;13.10;99.90;;;;;;4990208;28;20391;-73
2023/05/21 04:07:21;;;;;;;162.35;155.15;;;13.10;99.90;;;;;;4973622;28;20078;-73
2023/05/21 04:09:47;;;;;;;162.23;154.82;;;13.10;99.90;;;;;;4989541;28;20128;-73
2023/05/21 04:12:12;;;;;;;178.18;170.07;;;13.00;99.90;;;;;;4988816;28;20050;-73
2023/05/21 04:14:38;;;;;;;170.20;162.43;;;13.10;99.90;;;;;;4989370;28;20129;-73
2023/05/21 04:17:04;;;;;;;197.23;188.60;;;13.10;99.90;;;;;;4973612;28;20053;-73
2023/05/21 04:19:32;;;;;;;210.85;201.45;;;13.10;99.90;;;;;;4989826;28;20070;-73
2023/05/21 04:21:58;;;;;;;166.63;158.98;;;13.10;99.90;;;;;;4988391;28;20096;-73
2023/05/21 04:24:24;;;;;;;181.98;173.40;;;13.10;99.90;;;;;;4988115;28;20042;-73
2023/05/21 04:26:49;;;;;;;174.95;166.90;;;13.10;99.90;;;;;;4986491;28;20042;-73
2023/05/21 04:29:20;;;;;;;200.25;191.05;;;13.10;99.90;;;;;;4973812;28;20111;-73
2023/05/21 04:31:48;;;;;;;182.23;174.07;;;13.10;99.90;;;;;;4989748;28;20125;-73
2023/05/21 04:34:17;;;;;;;203.93;194.57;;;13.10;99.90;;;;;;4985851;28;20423;-74
2023/05/21 04:36:44;;;;;;;188.82;180.32;;;13.10;99.90;;;;;;4980876;28;20038;-73
2023/05/21 04:39:11;;;;;;;182.63;174.35;;;13.20;99.90;;;;;;4995005;28;20395;-73
2023/05/21 04:41:37;;;;;;;225.40;215.25;;;13.20;99.90;;;;;;4989103;28;20145;-73
2023/05/21 04:44:05;;;;;;;183.63;175.38;;;13.20;99.90;;;;;;4988815;28;20042;-73
2023/05/21 04:46:31;;;;;;;192.50;183.65;;;13.30;99.90;;;;;;4985531;28;20050;-73
2023/05/21 04:49:01;;;;;;;221.55;211.70;;;13.30;99.90;;;;;;4989194;28;20046;-73
2023/05/21 04:51:27;;;;;;;204.68;195.50;;;13.30;99.90;;;;;;4989472;28;20042;-73
2023/05/21 04:53:53;;;;;;;194.57;185.85;;;13.40;99.90;;;;;;4981260;28;20042;-73
2023/05/21 04:56:18;;;;;;;192.25;183.45;;;13.40;99.90;;;;;;4989222;28;20414;-73
2023/05/21 04:58:46;;;;;;;199.90;191.00;;;13.50;99.90;;;;;;4989233;28;20224;-73
2023/05/21 05:01:12;;;;;;;198.32;189.50;;;13.50;99.90;;;;;;4981608;28;20533;-73
2023/05/21 05:03:38;;;;;;;208.85;199.80;;;13.50;99.90;;;;;;4992418;28;20136;-73
2023/05/21 05:06:04;;;;;;;225.07;215.38;;;13.50;99.90;;;;;;4988041;28;20046;-73
2023/05/21 05:08:30;;;;;;;231.48;221.43;;;13.60;99.90;;;;;;4988907;28;20046;-72
2023/05/21 05:10:56;;;;;;;207.73;198.63;;;13.60;99.90;;;;;;4988700;28;20045;-73
2023/05/21 05:13:21;;;;;;;233.73;223.57;;;13.60;99.90;;;;;;4971957;28;20053;-73
2023/05/21 05:15:47;;;;;;;220.50;210.90;;;13.70;99.90;;;;;;4988157;28;20156;-73
2023/05/21 05:18:13;;;;;;;222.32;212.57;;;13.70;99.90;;;;;;4988713;28;20038;-74
2023/05/21 05:20:39;;;;;;;215.38;205.90;;;13.70;99.90;;;;;;4972796;28;20486;-73
2023/05/21 05:23:05;;;;;;;198.07;189.27;;;13.80;99.90;;;;;;4985180;28;20088;-74
2023/05/21 05:25:30;;;;;;;204.65;195.57;;;13.80;99.90;;;;;;4993573;28;20406;-73
2023/05/21 05:27:56;;;;;;;195.70;186.88;;;13.80;99.90;;;;;;4987273;28;20038;-73
2023/05/21 05:30:21;;;;;;;174.63;166.70;;;13.90;99.90;;;;;;4986993;28;20498;-72
2023/05/21 05:32:47;;;;;;;200.02;191.18;;;13.90;99.90;;;;;;4988047;28;20180;-74
2023/05/21 05:35:13;;;;;;;191.25;182.68;;;14.00;99.90;;;;;;4972805;28;20053;-74
2023/05/21 05:37:38;;;;;;;175.90;168.00;;;14.10;99.90;;;;;;4991056;28;20070;-73
2023/05/21 05:40:04;;;;;;;248.60;237.80;;;14.20;99.90;;;;;;4987455;28;20046;-73
2023/05/21 05:42:30;;;;;;;281.27;269.05;;;14.40;99.90;;;;;;4987948;28;20069;-73
2023/05/21 05:44:56;;;;;;;279.42;267.05;;;14.70;99.90;;;;;;4985015;28;20777;-74
2023/05/21 05:47:21;;;;;;;289.60;276.63;;;15.10;99.90;;;;;;4970705;28;20255;-73
2023/05/21 05:49:47;;;;;;;305.23;291.45;;;15.20;99.90;;;;;;4986151;28;20031;-74
2023/05/21 05:52:13;;;;;;;348.55;332.50;;;15.40;99.90;;;;;;4986446;28;20042;-73
2023/05/21 05:54:39;;;;;;;376.77;358.95;;;15.70;99.90;;;;;;4986456;28;20049;-74
2023/05/21 05:57:04;;;;;;;293.80;279.88;;;16.00;99.90;;;;;;4985873;28;20681;-74
2023/05/21 05:59:32;;;;;;;350.40;334.23;;;16.10;99.90;;;;;;4986332;28;20322;-74
2023/05/21 06:01:59;;;;;;;278.00;265.48;;;16.10;99.90;;;;;;4985963;28;20062;-74
2023/05/21 06:04:24;;;;;;;410.17;390.33;;;16.10;99.90;;;;;;5002319;28;20352;-73
2023/05/21 06:06:51;;;;;;;358.02;341.38;;;16.20;99.90;;;;;;4985325;28;20034;-73
2023/05/21 06:09:17;;;;;;;400.40;381.08;;;16.30;99.90;;;;;;4980834;28;20042;-74
2023/05/21 06:11:42;;;;;;;154.45;147.20;;;16.40;99.90;;;;;;4984700;28;20038;-74
2023/05/21 06:14:08;;;;;;;137.57;131.25;;;16.60;99.90;;;;;;4982817;28;20117;-73
2023/05/21 06:16:33;;;;;;;267.88;255.90;;;16.50;99.90;;;;;;4968429;28;20054;-73
2023/05/21 06:18:59;;;;;;;286.88;273.90;;;16.50;99.90;;;;;;4984188;28;20042;-73
2023/05/21 06:21:25;;;;;;;262.77;251.02;;;16.60;99.90;;;;;;4982751;28;20053;-73
2023/05/21 06:23:50;;;;;;;197.40;188.40;;;16.60;99.90;;;;;;4984242;28;20038;-73
2023/05/21 06:26:18;;;;;;;234.70;224.13;;;16.70;99.90;;;;;;4990540;28;20038;-74
2023/05/21 06:28:43;;;;;;;112.05;106.88;;;16.80;99.90;;;;;;4985507;28;20038;-74
2023/05/21 06:31:10;;;;;;;67.40;64.03;;;17.10;99.90;;;;;;4985296;28;20057;-74
2023/05/21 06:33:36;;;;;;;57.78;54.63;;;17.10;99.90;;;;;;4986481;28;20049;-74
2023/05/21 06:36:01;;;;;;;65.22;61.88;;;17.00;99.90;;;;;;4986277;28;20050;-73
2023/05/21 06:38:27;;;;;;;61.55;58.28;;;16.90;99.90;;;;;;4988271;28;20125;-74
2023/05/21 06:40:53;;;;;;;60.63;57.58;;;16.80;99.90;;;;;;4983751;28;20504;-73
2023/05/21 06:43:18;;;;;;;65.88;62.35;;;17.20;99.90;;;;;;4982009;28;20046;-74
2023/05/21 06:45:44;;;;;;;60.42;57.35;;;17.60;99.90;;;;;;4985487;28;20038;-73
2023/05/21 06:48:10;;;;;;;58.03;55.10;;;17.80;99.90;;;;;;4983632;28;20137;-74
2023/05/21 06:50:36;;;;;;;95.75;91.40;;;17.70;99.90;;;;;;4985013;28;20038;-73
2023/05/21 06:53:02;;;;;;;64.00;60.60;;;17.80;99.90;;;;;;4984270;28;20125;-74
2023/05/21 06:55:27;;;;;;;58.00;54.97;;;17.90;99.90;;;;;;4984900;28;20070;-74
2023/05/21 06:57:53;;;;;;;50.53;47.72;;;18.00;99.90;;;;;;4985941;28;20046;-73
2023/05/21 07:00:19;;;;;;;53.58;50.67;;;17.90;99.90;;;;;;4983378;28;20165;-74
2023/05/21 07:02:45;;;;;;;58.50;55.60;;;17.80;99.90;;;;;;4968768;28;20058;-73
2023/05/21 07:05:10;;;;;;;50.53;47.53;;;17.90;99.90;;;;;;4984985;28;20049;-74
2023/05/21 07:07:36;;;;;;;48.13;45.63;;;18.20;99.90;;;;;;4984330;28;20042;-74
2023/05/21 07:10:01;;;;;;;53.05;50.15;;;18.30;99.90;;;;;;4984845;28;20126;-74
2023/05/21 07:12:27;;;;;;;59.47;56.28;;;18.10;99.90;;;;;;4984549;28;20038;-74
2023/05/21 07:14:53;;;;;;;95.43;91.10;;;18.00;99.90;;;;;;4968895;28;20042;-73
2023/05/21 07:17:18;;;;;;;63.85;60.50;;;17.80;99.90;;;;;;4985601;28;20049;-74
2023/05/21 07:19:44;;;;;;;98.28;93.60;;;17.50;99.90;;;;;;4984777;28;20096;-74
2023/05/21 07:22:11;;;;;;;65.32;62.00;;;17.40;99.90;;;;;;4969206;28;20795;-73
2023/05/21 07:24:37;;;;;;;51.67;48.92;;;17.20;99.90;;;;;;4969119;28;20124;-73
2023/05/21 07:27:03;;;;;;;51.42;48.55;;;17.10;99.90;;;;;;4995870;28;20062;-73
2023/05/21 07:29:28;;;;;;;55.90;52.90;;;17.00;99.90;;;;;;4985457;28;20061;-73
2023/05/21 07:31:54;;;;;;;45.45;42.95;;;16.90;99.90;;;;;;4984723;28;20042;-74
2023/05/21 07:34:20;;;;;;;48.30;45.67;;;16.90;99.90;;;;;;4983472;28;20074;-74
2023/05/21 07:36:46;;;;;;;45.17;42.67;;;16.80;99.90;;;;;;4989004;28;20065;-73
2023/05/21 07:39:12;;;;;;;45.42;42.92;;;16.80;99.90;;;;;;4988981;28;20050;-74
2023/05/21 07:41:37;;;;;;;50.63;47.70;;;16.80;99.90;;;;;;4983103;28;20043;-74
2023/05/21 07:44:03;;;;;;;44.17;41.40;;;16.90;99.90;;;;;;4967964;28;20030;-74
2023/05/21 07:46:29;;;;;;;50.22;47.47;;;17.00;99.90;;;;;;4984239;28;20030;-74
2023/05/21 07:48:54;;;;;;;46.90;44.25;;;17.10;99.90;;;;;;4986710;28;20077;-74
2023/05/21 07:51:20;;;;;;;43.33;40.83;;;17.30;99.90;;;;;;4985827;28;20050;-74
2023/05/21 07:53:46;;;;;;;45.17;42.60;;;17.40;99.90;;;;;;4970296;28;20061;-74
2023/05/21 07:56:11;;;;;;;44.10;41.60;;;17.40;99.90;;;;;;4986221;28;20085;-73
2023/05/21 07:58:38;;;;;;;44.60;42.22;;;17.50;99.90;;;;;;4984803;28;20073;-73
2023/05/21 08:01:03;;;;;;;45.78;43.08;;;17.50;99.90;;;;;;4988938;28;20049;-73
2023/05/21 08:03:29;;;;;;;72.28;68.65;;;17.60;99.90;;;;;;4973658;28;20046;-74
2023/05/21 08:05:55;;;;;;;43.78;41.13;;;17.80;99.90;;;;;;4989810;28;20038;-74
2023/05/21 08:08:22;;;;;;;45.53;42.85;;;17.90;99.90;;;;;;4988612;28;20125;-74
2023/05/21 08:10:48;;;;;;;53.58;50.55;;;17.90;99.90;;;;;;4990213;28;20046;-74
2023/05/21 08:13:15;;;;;;;64.72;61.33;;;17.90;99.90;;;;;;4990022;28;20042;-74
2023/05/21 08:15:41;;;;;;;71.35;67.90;;;17.80;99.90;;;;;;4988326;28;20046;-74
2023/05/21 08:18:06;;;;;;;101.80;96.93;;;17.80;99.90;;;;;;4985399;28;20042;-74
2023/05/21 08:20:32;;;;;;;48.65;45.90;;;17.90;99.90;;;;;;5003786;28;20044;-74
2023/05/21 08:23:01;;;;;;;69.63;66.22;;;18.00;99.90;;;;;;4989044;28;20039;-74
2023/05/21 08:25:27;;;;;;;119.70;114.50;;;18.20;99.90;;;;;;4992876;28;20120;-74
2023/05/21 08:27:54;;;;;;;127.45;121.85;;;18.40;99.90;;;;;;4988286;28;20089;-74
2023/05/21 08:30:19;;;;;;;105.38;100.65;;;18.40;99.90;;;;;;4988891;28;20517;-74
2023/05/21 08:32:46;;;;;;;118.25;112.78;;;18.50;99.90;;;;;;4971585;28;20176;-74
2023/05/21 08:35:12;;;;;;;132.40;126.43;;;18.70;99.90;;;;;;4987890;28;20046;-73
2023/05/21 08:37:37;;;;;;;184.43;176.32;;;19.00;99.90;;;;;;4994139;28;20049;-74
2023/05/21 08:40:07;;;;;;;196.98;188.38;;;19.20;99.90;;;;;;4989312;28;20453;-74
2023/05/21 08:42:46;;;;;;;209.13;199.77;;;19.20;99.90;;;;;;4974477;28;20552;-73
2023/05/21 08:45:14;;;;;;;316.50;302.38;;;19.30;99.90;;;;;;4972935;28;20042;-74
2023/05/21 08:47:43;;;;;;;200.95;191.98;;;19.30;99.90;;;;;;4987546;28;20123;-74
2023/05/21 08:50:11;;;;;;;293.17;280.27;;;19.20;99.90;;;;;;4988119;28;20053;-74
2023/05/21 08:52:37;;;;;;;242.32;231.75;;;19.50;99.90;;;;;;4971951;28;20121;-74
2023/05/21 08:55:04;;;;;;;207.23;198.20;;;19.60;99.90;;;;;;4988318;28;20609;-73
2023/05/21 08:57:30;;;;;;;273.20;260.92;;;19.60;99.90;;;;;;4974341;28;20081;-75
2023/05/21 08:59:56;;;;;;;265.15;253.55;;;19.80;99.90;;;;;;4988069;28;20030;-74
2023/05/21 09:02:23;;;;;;;292.85;279.83;;;20.00;99.90;;;;;;4971505;28;20354;-74
2023/05/21 09:04:55;;;;;;;275.90;263.67;;;20.00;99.90;;;;;;4974794;28;20051;-74
2023/05/21 09:07:27;;;;;;;311.50;297.60;;;20.10;99.90;;;;;;4988456;28;20041;-74
2023/05/21 09:09:57;;;;;;;314.95;300.45;;;20.10;99.90;;;;;;4988245;28;20050;-74
2023/05/21 09:12:24;;;;;;;270.45;258.23;;;20.10;99.90;;;;;;4987306;28;20149;-74
2023/05/21 09:14:50;;;;;;;322.30;307.58;;;20.10;99.90;;;;;;4987111;28;20053;-74
2023/05/21 09:17:16;;;;;;;289.15;276.00;;;20.30;99.90;;;;;;4972688;28;20046;-74
2023/05/21 09:20:11;;;;;;;296.95;283.85;;;20.30;99.90;;;;;;4986528;28;20048;-74
2023/05/21 09:22:41;;;;;;;304.25;290.50;;;20.30;99.90;;;;;;4984002;28;20046;-73
2023/05/21 09:25:12;;;;;;;311.75;297.38;;;20.20;99.90;;;;;;4990554;28;20038;-74
2023/05/21 09:27:38;;;;;;;307.58;293.58;;;20.40;99.90;;;;;;4981840;28;20030;-74
2023/05/21 09:30:09;;;;;;;302.60;288.77;;;20.60;99.90;;;;;;4970377;28;20077;-74
2023/05/21 09:32:34;;;;;;;284.08;271.52;;;20.80;99.90;;;;;;4968730;28;20038;-74
2023/05/21 09:35:08;;;;;;;157.88;150.98;;;20.90;99.90;;;;;;4975111;28;20040;-74
2023/05/21 09:37:46;;;;;;;157.15;150.23;;;20.80;99.90;;;;;;4992220;28;20538;-74
2023/05/21 09:40:13;;;;;;;327.30;311.92;;;20.60;99.90;;;;;;4983471;28;20034;-74
2023/05/21 09:42:40;;;;;;;202.05;193.18;;;20.50;99.90;;;;;;4958241;28;20049;-74
2023/05/21 09:45:08;;;;;;;191.23;182.65;;;20.50;99.90;;;;;;4967280;28;20035;-74
2023/05/21 09:47:39;;;;;;;280.30;267.30;;;20.50;99.90;;;;;;4967447;28;20042;-74
2023/05/21 09:50:05;;;;;;;216.77;206.73;;;20.40;99.90;;;;;;4972367;28;20050;-73
2023/05/21 09:52:31;;;;;;;303.05;289.13;;;20.40;99.90;;;;;;4959849;28;20043;-73
2023/05/21 09:54:56;;;;;;;287.63;274.85;;;20.30;99.90;;;;;;4986119;28;20042;-74
2023/05/21 09:57:23;;;;;;;127.63;121.93;;;20.20;99.90;;;;;;4983605;28;20158;-74
2023/05/21 09:59:49;;;;;;;297.10;283.70;;;20.30;99.90;;;;;;4987530;28;20046;-74
2023/05/21 10:02:23;;;;;;;173.52;165.35;;;20.30;99.90;;;;;;4987209;28;20413;-74
2023/05/21 10:04:49;;;;;;;239.50;228.60;;;20.30;99.90;;;;;;4987156;28;20046;-73
2023/05/21 10:07:24;;;;;;;202.43;192.88;;;20.20;99.90;;;;;;4987272;28;20042;-74
2023/05/21 10:09:53;;;;;;;279.27;266.85;;;20.20;99.90;;;;;;4986454;28;20406;-74
2023/05/21 10:12:21;;;;;;;66.30;62.78;;;20.30;99.90;;;;;;4987373;28;20039;-75
2023/05/21 10:14:53;;;;;;;220.95;211.13;;;20.40;99.90;;;;;;4986970;28;20046;-74
2023/05/21 10:17:19;;;;;;;273.27;260.58;;;20.50;99.90;;;;;;4986689;28;20081;-74
2023/05/21 10:19:46;;;;;;;42.53;40.22;;;20.60;99.90;;;;;;4987770;28;20061;-73
2023/05/21 10:22:12;;;;;;;78.53;74.78;;;20.60;99.90;;;;;;4987248;28;20089;-74
2023/05/21 10:24:40;;;;;;;145.20;138.50;;;20.40;99.90;;;;;;4988964;28;20057;-73
2023/05/21 10:27:06;;;;;;;52.75;49.72;;;20.40;99.90;;;;;;4976660;28;20042;-74
2023/05/21 10:29:32;;;;;;;50.60;47.92;;;20.40;99.90;;;;;;4986203;28;20037;-74
2023/05/21 10:32:00;;;;;;;114.22;108.47;;;20.30;99.90;;;;;;4968688;28;20411;-74
2023/05/21 10:34:27;;;;;;;254.25;243.05;;;20.40;99.90;;;;;;4983743;28;20042;-74
2023/05/21 10:36:55;;;;;;;68.30;64.70;;;20.60;99.90;;;;;;4988434;28;20042;-74
2023/05/21 10:39:24;;;;;;;204.60;195.32;;;20.80;99.90;;;;;;4983507;28;20100;-74
2023/05/21 10:42:23;;;;;;;84.07;79.85;;;20.90;99.90;;;;;;4986972;28;20093;-74
2023/05/21 10:45:07;;;;;;;175.13;167.48;;;20.90;99.90;;;;;;4986335;28;20113;-74
2023/05/21 10:47:39;;;;;;;50.65;47.90;;;20.90;99.90;;;;;;4984459;28;20042;-74
2023/05/21 10:50:39;;;;;;;65.00;61.53;;;21.00;99.90;;;;;;4986826;28;20042;-73
2023/05/21 10:53:29;;;;;;;59.88;56.70;;;20.90;99.90;;;;;;4985287;28;20046;-74
2023/05/21 10:56:23;;;;;;;79.25;75.35;;;20.60;99.90;;;;;;4985981;28;20049;-73
2023/05/21 10:59:17;;;;;;;181.98;173.52;;;20.70;99.90;;;;;;4976609;28;20112;-74
2023/05/21 11:01:44;;;;;;;37.25;35.05;;;20.90;99.90;;;;;;4985199;28;20147;-74
2023/05/21 11:04:11;;;;;;;45.33;42.85;;;21.30;99.90;;;;;;4987098;28;20560;-74
2023/05/21 11:06:36;;;;;;;143.52;136.55;;;21.40;99.90;;;;;;4969931;28;20038;-74
2023/05/21 11:09:12;;;;;;;190.52;181.65;;;21.30;99.90;;;;;;4987172;28;20053;-74
2023/05/21 11:11:58;;;;;;;40.90;38.60;;;21.30;99.90;;;;;;4986482;28;20034;-73
2023/05/21 11:14:34;;;;;;;64.43;60.95;;;21.30;99.90;;;;;;4985469;28;20125;-74
2023/05/21 11:17:14;;;;;;;78.25;74.35;;;21.20;99.90;;;;;;4985325;28;20615;-74
2023/05/21 11:19:47;;;;;;;66.80;63.42;;;21.20;99.90;;;;;;4986371;28;20121;-74
2023/05/21 11:22:22;;;;;;;53.20;50.35;;;21.20;99.90;;;;;;4986078;28;20049;-74
2023/05/21 11:24:48;;;;;;;47.45;44.90;;;21.50;99.90;;;;;;4989119;28;20495;-73
2023/05/21 11:27:35;;;;;;;109.38;104.20;;;21.70;99.90;;;;;;4969003;28;20402;-74
2023/05/21 11:30:09;;;;;;;97.97;93.40;;;21.70;99.90;;;;;;4986509;28;20494;-74
2023/05/21 11:32:39;;;;;;;68.07;64.63;;;21.80;99.90;;;;;;4969860;28;20049;-74
2023/05/21 11:35:05;;;;;;;47.65;45.03;;;22.00;99.90;;;;;;4983648;28;20054;-73
2023/05/21 11:37:33;;;;;;;51.03;48.00;;;22.10;99.90;;;;;;4993198;28;20522;-73
2023/05/21 11:40:48;;;;;;;85.20;81.07;;;22.10;99.90;;;;;;4990831;28;20424;-74
2023/05/21 11:43:14;;;;;;;71.78;68.10;;;22.10;99.90;;;;;;4961760;28;20049;-74
2023/05/21 11:45:45;;;;;;;61.42;58.20;;;22.30;99.90;;;;;;4972569;28;20479;-74
2023/05/21 11:48:13;;;;;;;68.55;64.85;;;22.20;99.90;;;;;;4971676;28;20054;-74
2023/05/21 11:50:41;;;;;;;110.05;104.68;;;22.10;99.90;;;;;;4973128;28;20447;-74
2023/05/21 11:53:07;;;;;;;39.38;37.08;;;22.10;99.90;;;;;;4964186;28;20442;-73
2023/05/21 11:55:42;;;;;;;83.38;79.25;;;22.00;99.90;;;;;;4971601;28;20490;-73
2023/05/21 11:58:12;;;;;;;66.60;63.10;;;22.00;99.90;;;;;;4974211;28;20409;-74
2023/05/21 12:00:41;;;;;;;41.75;39.08;;;22.10;99.90;;;;;;4973026;28;20061;-73
2023/05/21 12:03:11;;;;;;;46.30;43.63;;;22.30;99.90;;;;;;4971458;28;20093;-74
2023/05/21 12:05:50;;;;;;;98.53;93.78;;;22.40;99.90;;;;;;4975220;28;20317;-74
2023/05/21 12:08:25;;;;;;;65.93;62.30;;;22.20;99.90;;;;;;4971375;28;20553;-74
2023/05/21 12:10:58;;;;;;;79.22;75.18;;;22.10;99.90;;;;;;4972502;28;20502;-73
2023/05/21 12:13:25;;;;;;;162.75;154.98;;;21.90;99.90;;;;;;4974852;28;20574;-73
2023/05/21 12:15:52;;;;;;;160.70;152.80;;;21.90;99.90;;;;;;4989942;28;20077;-73
2023/05/21 12:18:18;;;;;;;54.22;51.22;;;21.80;99.90;;;;;;4989864;28;20062;-74